GORO2: Illinois River, Gore, OK

                                SHEF ID:       GORO2     Illinois River near Gore, OK
STATION TYPE:
Regulating: Stage = 17.00, Flow = 14873

PRECIP PRECIP(A) STAGE STAGE(2) RIV-FLOW WTR-TEMP DIS-OXY BAT-LOAD
in in ft ft cfs F mg/l volt
Ccp-Rev Ccp-Rev Ccp-Rev Ccp-Rev Ccp-Rev Ccp-Rev Ccp-Rev Ccp-Rev
(America/Chicago)
09/02 00:00 0.00 ---- 7.30 7.29 285 73.72 2.46 12.73
09/02 01:00 0.00 ---- 7.05 7.06 192 73.63 3.07 12.72
09/02 02:00 0.00 ---- 6.94 7.06 159 73.49 3.22 12.71
09/02 03:00 0.00 ---- 6.86 7.06 137 73.36 3.34 12.70
09/02 04:00 0.00 ---- 6.82 7.06 127 73.24 3.40 12.67
09/02 05:00 0.00 ---- 6.79 7.06 120 73.06 3.51 12.66
09/02 06:00 0.00 ---- 6.76 7.06 113 72.86 3.67 12.65
09/02 07:00 0.00 ---- 6.74 7.06 108 72.59 3.68 12.63
09/02 08:00 0.00 ---- 6.72 7.06 104 72.37 3.75 12.64
09/02 09:00 0.00 ---- 6.71 7.06 102 72.52 4.02 12.71
09/02 10:00 0.00 ---- 6.70 7.06 100 73.06 4.19 12.80
09/02 11:00 0.00 ---- 6.69 7.06 98 73.71 4.57 13.11
09/02 12:00 0.00 ---- 6.69 7.06 98 74.61 5.03 13.19
09/02 13:00 0.00 ---- 6.69 7.06 98 75.76 5.44 13.05
09/02 14:00 0.00 ---- 10.21 9.81 2682 74.25 3.98 13.18
09/02 15:00 0.00 ---- 11.41 11.40 4125 74.68 2.60 13.09
09/02 16:00 0.00 ---- 11.54 11.54 4293 74.52 2.11 12.94
09/02 17:00 0.00 ---- 11.59 11.58 4362 74.28 1.89 12.88
09/02 18:00 0.00 ---- 11.61 11.61 4390 74.03 1.74 12.83
09/02 19:00 0.00 ---- 11.63 11.62 4418 73.85 1.61 12.80
09/02 20:00 0.00 ---- 11.62 11.62 4404 73.72 1.52 12.77
09/02 21:00 0.00 ---- 11.62 11.62 4404 73.62 1.54 12.76
09/02 22:00 0.00 ---- 9.82 9.94 2250 73.74 1.48 12.75
09/02 23:00 0.00 ---- 7.99 8.01 667 73.81 1.77 12.73
Data processed at Thu 03Sep2026 04:35 GMT

NOTICE: If you are parsing this page

Please convert to using our Data API. Starting early 2026 we will be migrating to: https://water.usace.army.mil with modern pages rendered in JavaScript. When this migration completes you will no longer be able to scrape this page! CWMSDataAPI (CDA)

Timeseries IDs (TSIDs)

TSIDs used from left to right in the data table
GORE.Precip-Inc.Total.1Hour.1Hour.Ccp-Rev
GORE.Precip-Inc Alt.Total.1Hour.1Hour.Ccp-Rev
GORE.Stage.Inst.1Hour.0.Ccp-Rev
GORE.Stage-Alt.Inst.1Hour.0.Ccp-Rev
GORE.Flow.Inst.1Hour.0.Ccp-Rev
GORE.Temp-Water.Inst.1Hour.0.Ccp-Rev
GORE.Conc-DO.Inst.1Hour.0.Ccp-Rev
GORE.Volt-Battery Load.Inst.1Hour.0.Ccp-Rev

                            

All information presented herein is the property of the government of the United States of America and may be revised or deleted at any time without prior notice. Dissemination of this information without the expressed written consent of the Public Affairs Office, Tulsa District U.S. Army Corps of Engineers is strictly prohibited. These data are gathered electronically and, as presented, have NOT undergone any form of quality control. These data are NOT guaranteed to be valid or correct.